sensor_id;sensor_type;location;lat;lon;timestamp;temperature;humidity
9271;DHT22;4673;53.458;9.940;2023-05-16T00:02:06;10.50;81.80
9271;DHT22;4673;53.458;9.940;2023-05-16T00:04:31;10.60;81.30
9271;DHT22;4673;53.458;9.940;2023-05-16T00:06:57;10.60;81.40
9271;DHT22;4673;53.458;9.940;2023-05-16T00:09:23;10.60;81.30
9271;DHT22;4673;53.458;9.940;2023-05-16T00:11:49;10.80;81.70
9271;DHT22;4673;53.458;9.940;2023-05-16T00:14:15;10.60;81.50
9271;DHT22;4673;53.458;9.940;2023-05-16T00:16:41;10.60;81.50
9271;DHT22;4673;53.458;9.940;2023-05-16T00:19:06;10.70;81.30
9271;DHT22;4673;53.458;9.940;2023-05-16T00:21:33;10.80;81.00
9271;DHT22;4673;53.458;9.940;2023-05-16T00:23:58;10.80;81.10
9271;DHT22;4673;53.458;9.940;2023-05-16T00:26:24;10.80;81.00
9271;DHT22;4673;53.458;9.940;2023-05-16T00:28:50;10.80;81.00
9271;DHT22;4673;53.458;9.940;2023-05-16T00:31:16;10.80;81.00
9271;DHT22;4673;53.458;9.940;2023-05-16T00:33:42;10.90;81.10
9271;DHT22;4673;53.458;9.940;2023-05-16T00:36:07;10.80;81.30
9271;DHT22;4673;53.458;9.940;2023-05-16T00:38:33;10.90;81.50
9271;DHT22;4673;53.458;9.940;2023-05-16T00:40:58;10.80;81.50
9271;DHT22;4673;53.458;9.940;2023-05-16T00:43:24;10.80;82.10
9271;DHT22;4673;53.458;9.940;2023-05-16T00:45:50;10.70;82.40
9271;DHT22;4673;53.458;9.940;2023-05-16T00:48:16;10.70;82.80
9271;DHT22;4673;53.458;9.940;2023-05-16T00:50:42;10.60;82.70
9271;DHT22;4673;53.458;9.940;2023-05-16T00:53:08;10.70;82.80
9271;DHT22;4673;53.458;9.940;2023-05-16T00:55:34;10.70;82.80
9271;DHT22;4673;53.458;9.940;2023-05-16T00:58:00;10.70;81.90
9271;DHT22;4673;53.458;9.940;2023-05-16T01:00:26;10.70;81.90
9271;DHT22;4673;53.458;9.940;2023-05-16T01:02:51;10.70;82.10
9271;DHT22;4673;53.458;9.940;2023-05-16T01:05:19;10.80;81.80
9271;DHT22;4673;53.458;9.940;2023-05-16T01:07:44;10.80;81.30
9271;DHT22;4673;53.458;9.940;2023-05-16T01:10:11;10.80;81.20
9271;DHT22;4673;53.458;9.940;2023-05-16T01:13:12;10.80;81.20
9271;DHT22;4673;53.458;9.940;2023-05-16T01:15:58;10.80;80.80
9271;DHT22;4673;53.458;9.940;2023-05-16T01:21:19;11.00;80.80
9271;DHT22;4673;53.458;9.940;2023-05-16T01:24:03;10.90;80.50
9271;DHT22;4673;53.458;9.940;2023-05-16T01:26:34;10.90;81.10
9271;DHT22;4673;53.458;9.940;2023-05-16T01:29:01;11.00;80.90
9271;DHT22;4673;53.458;9.940;2023-05-16T01:31:28;11.00;81.20
9271;DHT22;4673;53.458;9.940;2023-05-16T01:33:54;11.00;80.90
9271;DHT22;4673;53.458;9.940;2023-05-16T01:36:35;11.00;81.30
9271;DHT22;4673;53.458;9.940;2023-05-16T01:42:03;10.90;82.90
9271;DHT22;4673;53.458;9.940;2023-05-16T01:44:49;10.80;83.70
9271;DHT22;4673;53.458;9.940;2023-05-16T01:47:19;10.70;84.60
9271;DHT22;4673;53.458;9.940;2023-05-16T01:49:54;10.60;86.00
9271;DHT22;4673;53.458;9.940;2023-05-16T01:52:27;10.50;87.40
9271;DHT22;4673;53.458;9.940;2023-05-16T01:54:57;10.40;88.50
9271;DHT22;4673;53.458;9.940;2023-05-16T01:57:25;10.30;89.60
9271;DHT22;4673;53.458;9.940;2023-05-16T01:59:51;10.20;90.60
9271;DHT22;4673;53.458;9.940;2023-05-16T02:02:18;10.10;91.00
9271;DHT22;4673;53.458;9.940;2023-05-16T02:04:44;10.00;91.10
9271;DHT22;4673;53.458;9.940;2023-05-16T02:07:10;10.00;91.30
9271;DHT22;4673;53.458;9.940;2023-05-16T02:09:35;10.00;91.50
9271;DHT22;4673;53.458;9.940;2023-05-16T02:12:01;9.90;91.20
9271;DHT22;4673;53.458;9.940;2023-05-16T02:14:27;9.80;91.00
9271;DHT22;4673;53.458;9.940;2023-05-16T02:16:53;9.80;91.40
9271;DHT22;4673;53.458;9.940;2023-05-16T02:19:19;9.90;90.80
9271;DHT22;4673;53.458;9.940;2023-05-16T02:21:45;9.90;89.90
9271;DHT22;4673;53.458;9.940;2023-05-16T02:24:10;9.90;90.00
9271;DHT22;4673;53.458;9.940;2023-05-16T02:26:36;9.90;89.00
9271;DHT22;4673;53.458;9.940;2023-05-16T02:29:02;9.90;89.10
9271;DHT22;4673;53.458;9.940;2023-05-16T02:31:31;10.00;88.90
9271;DHT22;4673;53.458;9.940;2023-05-16T02:33:58;9.90;87.50
9271;DHT22;4673;53.458;9.940;2023-05-16T02:36:24;9.90;87.10
9271;DHT22;4673;53.458;9.940;2023-05-16T02:38:50;9.90;87.10
9271;DHT22;4673;53.458;9.940;2023-05-16T02:41:16;10.00;85.70
9271;DHT22;4673;53.458;9.940;2023-05-16T02:43:41;10.00;84.10
9271;DHT22;4673;53.458;9.940;2023-05-16T02:46:28;10.00;82.30
9271;DHT22;4673;53.458;9.940;2023-05-16T02:48:55;10.00;81.90
9271;DHT22;4673;53.458;9.940;2023-05-16T02:51:22;10.10;81.10
9271;DHT22;4673;53.458;9.940;2023-05-16T02:53:48;10.00;80.50
9271;DHT22;4673;53.458;9.940;2023-05-16T02:56:14;10.00;81.00
9271;DHT22;4673;53.458;9.940;2023-05-16T02:58:40;10.00;80.70
9271;DHT22;4673;53.458;9.940;2023-05-16T03:01:06;10.00;80.30
9271;DHT22;4673;53.458;9.940;2023-05-16T03:03:32;10.10;80.60
9271;DHT22;4673;53.458;9.940;2023-05-16T03:05:59;10.20;80.10
9271;DHT22;4673;53.458;9.940;2023-05-16T03:08:25;10.20;79.50
9271;DHT22;4673;53.458;9.940;2023-05-16T03:10:51;10.20;78.60
9271;DHT22;4673;53.458;9.940;2023-05-16T03:13:16;10.10;79.30
9271;DHT22;4673;53.458;9.940;2023-05-16T03:15:42;10.10;79.10
9271;DHT22;4673;53.458;9.940;2023-05-16T03:18:08;10.00;78.50
9271;DHT22;4673;53.458;9.940;2023-05-16T03:20:33;10.10;78.50
9271;DHT22;4673;53.458;9.940;2023-05-16T03:22:59;10.10;77.10
9271;DHT22;4673;53.458;9.940;2023-05-16T03:25:25;10.00;76.80
9271;DHT22;4673;53.458;9.940;2023-05-16T03:27:51;10.00;76.40
9271;DHT22;4673;53.458;9.940;2023-05-16T03:30:18;10.00;75.60
9271;DHT22;4673;53.458;9.940;2023-05-16T03:32:45;10.00;75.50
9271;DHT22;4673;53.458;9.940;2023-05-16T03:35:10;10.00;76.00
9271;DHT22;4673;53.458;9.940;2023-05-16T03:37:37;10.20;76.10
9271;DHT22;4673;53.458;9.940;2023-05-16T03:40:03;10.20;75.90
9271;DHT22;4673;53.458;9.940;2023-05-16T03:42:31;10.10;76.00
9271;DHT22;4673;53.458;9.940;2023-05-16T03:44:57;10.00;77.00
9271;DHT22;4673;53.458;9.940;2023-05-16T03:47:23;10.00;77.70
9271;DHT22;4673;53.458;9.940;2023-05-16T03:49:48;9.90;78.60
9271;DHT22;4673;53.458;9.940;2023-05-16T03:52:14;9.90;79.60
9271;DHT22;4673;53.458;9.940;2023-05-16T03:54:40;9.90;80.30
9271;DHT22;4673;53.458;9.940;2023-05-16T03:57:05;9.90;80.20
9271;DHT22;4673;53.458;9.940;2023-05-16T03:59:31;9.90;80.10
9271;DHT22;4673;53.458;9.940;2023-05-16T04:01:58;9.90;79.10
9271;DHT22;4673;53.458;9.940;2023-05-16T04:04:24;9.90;79.30
9271;DHT22;4673;53.458;9.940;2023-05-16T04:06:50;10.00;78.60
9271;DHT22;4673;53.458;9.940;2023-05-16T04:09:16;9.90;78.20
9271;DHT22;4673;53.458;9.940;2023-05-16T04:11:42;9.90;77.40
9271;DHT22;4673;53.458;9.940;2023-05-16T04:14:07;9.90;75.50
9271;DHT22;4673;53.458;9.940;2023-05-16T04:16:33;9.80;75.90
9271;DHT22;4673;53.458;9.940;2023-05-16T04:18:59;9.80;75.60
9271;DHT22;4673;53.458;9.940;2023-05-16T04:21:24;9.80;76.20
9271;DHT22;4673;53.458;9.940;2023-05-16T04:23:50;9.80;75.70
9271;DHT22;4673;53.458;9.940;2023-05-16T04:26:15;9.90;75.20
9271;DHT22;4673;53.458;9.940;2023-05-16T04:28:42;9.90;74.40
9271;DHT22;4673;53.458;9.940;2023-05-16T04:31:07;9.80;73.80
9271;DHT22;4673;53.458;9.940;2023-05-16T04:33:33;9.90;73.80
9271;DHT22;4673;53.458;9.940;2023-05-16T04:35:59;9.90;73.00
9271;DHT22;4673;53.458;9.940;2023-05-16T04:38:25;9.90;73.50
9271;DHT22;4673;53.458;9.940;2023-05-16T04:40:51;10.00;73.20
9271;DHT22;4673;53.458;9.940;2023-05-16T04:43:17;10.00;71.60
9271;DHT22;4673;53.458;9.940;2023-05-16T04:45:43;10.00;71.70
9271;DHT22;4673;53.458;9.940;2023-05-16T04:48:09;10.00;71.30
9271;DHT22;4673;53.458;9.940;2023-05-16T04:50:36;10.00;71.00
9271;DHT22;4673;53.458;9.940;2023-05-16T04:53:02;9.90;71.10
9271;DHT22;4673;53.458;9.940;2023-05-16T04:55:28;9.90;70.60
9271;DHT22;4673;53.458;9.940;2023-05-16T04:57:53;9.80;70.80
9271;DHT22;4673;53.458;9.940;2023-05-16T05:00:19;9.90;70.80
9271;DHT22;4673;53.458;9.940;2023-05-16T05:02:45;9.90;70.40
9271;DHT22;4673;53.458;9.940;2023-05-16T05:05:11;10.00;70.10
9271;DHT22;4673;53.458;9.940;2023-05-16T05:07:36;10.00;70.10
9271;DHT22;4673;53.458;9.940;2023-05-16T05:10:02;10.00;69.90
9271;DHT22;4673;53.458;9.940;2023-05-16T05:12:28;10.00;69.60
9271;DHT22;4673;53.458;9.940;2023-05-16T05:14:54;9.90;68.70
9271;DHT22;4673;53.458;9.940;2023-05-16T05:17:20;10.20;69.70
9271;DHT22;4673;53.458;9.940;2023-05-16T05:19:46;10.00;68.50
9271;DHT22;4673;53.458;9.940;2023-05-16T05:22:13;10.00;68.50
9271;DHT22;4673;53.458;9.940;2023-05-16T05:24:38;9.90;68.20
9271;DHT22;4673;53.458;9.940;2023-05-16T05:27:04;10.00;68.60
9271;DHT22;4673;53.458;9.940;2023-05-16T05:29:30;10.00;66.70
9271;DHT22;4673;53.458;9.940;2023-05-16T05:31:55;10.00;68.00
9271;DHT22;4673;53.458;9.940;2023-05-16T05:34:21;10.20;67.40
9271;DHT22;4673;53.458;9.940;2023-05-16T05:36:47;10.30;66.50
9271;DHT22;4673;53.458;9.940;2023-05-16T05:39:12;10.40;66.50
9271;DHT22;4673;53.458;9.940;2023-05-16T05:41:38;10.40;65.30
9271;DHT22;4673;53.458;9.940;2023-05-16T05:44:04;10.50;66.20
9271;DHT22;4673;53.458;9.940;2023-05-16T05:46:30;10.70;66.20
9271;DHT22;4673;53.458;9.940;2023-05-16T05:48:56;10.80;64.30
9271;DHT22;4673;53.458;9.940;2023-05-16T05:51:23;10.80;63.90
9271;DHT22;4673;53.458;9.940;2023-05-16T05:53:49;10.80;63.00
9271;DHT22;4673;53.458;9.940;2023-05-16T05:56:15;11.00;61.70
9271;DHT22;4673;53.458;9.940;2023-05-16T05:58:40;11.60;61.80
9271;DHT22;4673;53.458;9.940;2023-05-16T06:01:06;11.80;58.70
9271;DHT22;4673;53.458;9.940;2023-05-16T06:03:32;12.10;57.90
9271;DHT22;4673;53.458;9.940;2023-05-16T06:05:58;12.40;56.60
9271;DHT22;4673;53.458;9.940;2023-05-16T06:08:24;12.20;54.80
9271;DHT22;4673;53.458;9.940;2023-05-16T06:10:50;11.90;54.00
9271;DHT22;4673;53.458;9.940;2023-05-16T06:13:16;11.40;55.50
9271;DHT22;4673;53.458;9.940;2023-05-16T06:15:41;11.20;57.00
9271;DHT22;4673;53.458;9.940;2023-05-16T06:18:07;11.00;58.00
9271;DHT22;4673;53.458;9.940;2023-05-16T06:20:32;10.90;59.20
9271;DHT22;4673;53.458;9.940;2023-05-16T06:22:58;11.10;59.00
9271;DHT22;4673;53.458;9.940;2023-05-16T06:25:24;11.20;58.70
9271;DHT22;4673;53.458;9.940;2023-05-16T06:27:49;11.10;59.50
9271;DHT22;4673;53.458;9.940;2023-05-16T06:30:15;11.30;59.50
9271;DHT22;4673;53.458;9.940;2023-05-16T06:32:41;11.50;58.70
9271;DHT22;4673;53.458;9.940;2023-05-16T06:35:07;11.60;57.90
9271;DHT22;4673;53.458;9.940;2023-05-16T06:37:33;11.40;55.70
9271;DHT22;4673;53.458;9.940;2023-05-16T06:39:59;11.30;56.90
9271;DHT22;4673;53.458;9.940;2023-05-16T06:42:25;11.40;57.40
9271;DHT22;4673;53.458;9.940;2023-05-16T06:44:51;11.60;57.00
9271;DHT22;4673;53.458;9.940;2023-05-16T06:47:16;11.70;56.90
9271;DHT22;4673;53.458;9.940;2023-05-16T06:49:42;11.90;56.10
9271;DHT22;4673;53.458;9.940;2023-05-16T06:52:08;12.10;55.80
9271;DHT22;4673;53.458;9.940;2023-05-16T06:54:34;11.80;56.00
9271;DHT22;4673;53.458;9.940;2023-05-16T06:56:59;11.90;55.80
9271;DHT22;4673;53.458;9.940;2023-05-16T06:59:25;12.10;55.40
9271;DHT22;4673;53.458;9.940;2023-05-16T07:01:51;12.10;53.50
9271;DHT22;4673;53.458;9.940;2023-05-16T07:04:16;11.70;54.00
9271;DHT22;4673;53.458;9.940;2023-05-16T07:06:42;11.80;55.30
9271;DHT22;4673;53.458;9.940;2023-05-16T07:09:08;12.00;54.10
9271;DHT22;4673;53.458;9.940;2023-05-16T07:11:33;11.80;53.40
9271;DHT22;4673;53.458;9.940;2023-05-16T07:13:59;11.60;53.80
9271;DHT22;4673;53.458;9.940;2023-05-16T07:16:25;11.60;54.70
9271;DHT22;4673;53.458;9.940;2023-05-16T07:18:53;11.70;54.50
9271;DHT22;4673;53.458;9.940;2023-05-16T07:21:18;11.50;53.50
9271;DHT22;4673;53.458;9.940;2023-05-16T07:23:44;11.60;53.10
9271;DHT22;4673;53.458;9.940;2023-05-16T07:26:10;11.50;52.00
9271;DHT22;4673;53.458;9.940;2023-05-16T07:28:35;11.60;51.50
9271;DHT22;4673;53.458;9.940;2023-05-16T07:31:01;11.70;48.10
9271;DHT22;4673;53.458;9.940;2023-05-16T07:33:27;11.70;48.10
9271;DHT22;4673;53.458;9.940;2023-05-16T07:35:52;11.80;47.10
9271;DHT22;4673;53.458;9.940;2023-05-16T07:38:20;11.80;47.10
9271;DHT22;4673;53.458;9.940;2023-05-16T07:40:45;12.00;47.30
9271;DHT22;4673;53.458;9.940;2023-05-16T07:43:11;12.40;48.00
9271;DHT22;4673;53.458;9.940;2023-05-16T07:45:37;12.60;45.50
9271;DHT22;4673;53.458;9.940;2023-05-16T07:48:03;12.20;46.80
9271;DHT22;4673;53.458;9.940;2023-05-16T07:50:29;12.20;48.00
9271;DHT22;4673;53.458;9.940;2023-05-16T07:52:54;12.10;48.90
9271;DHT22;4673;53.458;9.940;2023-05-16T07:55:20;12.10;47.80
9271;DHT22;4673;53.458;9.940;2023-05-16T07:57:47;11.80;48.40
9271;DHT22;4673;53.458;9.940;2023-05-16T08:00:13;11.80;48.70
9271;DHT22;4673;53.458;9.940;2023-05-16T08:02:39;11.80;47.50
9271;DHT22;4673;53.458;9.940;2023-05-16T08:05:06;11.70;47.00
9271;DHT22;4673;53.458;9.940;2023-05-16T08:07:32;11.60;48.40
9271;DHT22;4673;53.458;9.940;2023-05-16T08:09:58;11.80;49.40
9271;DHT22;4673;53.458;9.940;2023-05-16T08:12:24;12.20;47.80
9271;DHT22;4673;53.458;9.940;2023-05-16T08:14:49;12.50;47.50
9271;DHT22;4673;53.458;9.940;2023-05-16T08:17:15;12.70;45.40
9271;DHT22;4673;53.458;9.940;2023-05-16T08:19:41;12.50;44.70
9271;DHT22;4673;53.458;9.940;2023-05-16T08:22:08;12.60;45.00
9271;DHT22;4673;53.458;9.940;2023-05-16T08:24:34;12.80;44.00
9271;DHT22;4673;53.458;9.940;2023-05-16T08:27:00;12.90;43.50
9271;DHT22;4673;53.458;9.940;2023-05-16T08:29:26;13.20;42.30
9271;DHT22;4673;53.458;9.940;2023-05-16T08:31:51;13.30;42.20
9271;DHT22;4673;53.458;9.940;2023-05-16T08:34:17;13.10;42.20
9271;DHT22;4673;53.458;9.940;2023-05-16T08:36:43;12.60;42.40
9271;DHT22;4673;53.458;9.940;2023-05-16T08:39:09;12.20;44.10
9271;DHT22;4673;53.458;9.940;2023-05-16T08:41:38;12.20;46.00
9271;DHT22;4673;53.458;9.940;2023-05-16T08:44:03;12.10;45.60
9271;DHT22;4673;53.458;9.940;2023-05-16T08:46:32;11.70;46.10
9271;DHT22;4673;53.458;9.940;2023-05-16T08:48:59;11.70;45.10
9271;DHT22;4673;53.458;9.940;2023-05-16T08:51:27;11.90;45.40
9271;DHT22;4673;53.458;9.940;2023-05-16T08:54:01;12.30;44.20
9271;DHT22;4673;53.458;9.940;2023-05-16T08:56:28;12.80;43.40
9271;DHT22;4673;53.458;9.940;2023-05-16T08:58:54;13.50;41.60
9271;DHT22;4673;53.458;9.940;2023-05-16T09:01:22;13.80;39.00
9271;DHT22;4673;53.458;9.940;2023-05-16T09:03:49;13.50;39.00
9271;DHT22;4673;53.458;9.940;2023-05-16T09:06:15;12.90;39.70
9271;DHT22;4673;53.458;9.940;2023-05-16T09:08:41;12.20;43.10
9271;DHT22;4673;53.458;9.940;2023-05-16T09:11:08;11.80;45.90
9271;DHT22;4673;53.458;9.940;2023-05-16T09:13:34;11.80;47.10
9271;DHT22;4673;53.458;9.940;2023-05-16T09:16:11;11.90;46.20
9271;DHT22;4673;53.458;9.940;2023-05-16T09:18:37;12.20;44.50
9271;DHT22;4673;53.458;9.940;2023-05-16T09:21:06;12.60;44.90
9271;DHT22;4673;53.458;9.940;2023-05-16T09:23:33;13.50;40.30
9271;DHT22;4673;53.458;9.940;2023-05-16T09:25:59;13.70;41.70
9271;DHT22;4673;53.458;9.940;2023-05-16T09:28:25;14.00;36.40
9271;DHT22;4673;53.458;9.940;2023-05-16T09:30:52;13.90;32.70
9271;DHT22;4673;53.458;9.940;2023-05-16T09:33:21;13.00;33.40
9271;DHT22;4673;53.458;9.940;2023-05-16T09:35:48;12.70;34.80
9271;DHT22;4673;53.458;9.940;2023-05-16T09:38:19;12.90;36.80
9271;DHT22;4673;53.458;9.940;2023-05-16T09:40:44;13.10;35.50
9271;DHT22;4673;53.458;9.940;2023-05-16T09:43:14;13.50;37.10
9271;DHT22;4673;53.458;9.940;2023-05-16T09:45:44;14.00;34.60
9271;DHT22;4673;53.458;9.940;2023-05-16T09:48:11;14.30;26.90
9271;DHT22;4673;53.458;9.940;2023-05-16T09:50:40;14.10;29.30
9271;DHT22;4673;53.458;9.940;2023-05-16T09:53:12;13.60;29.90
9271;DHT22;4673;53.458;9.940;2023-05-16T09:55:38;13.20;34.20
9271;DHT22;4673;53.458;9.940;2023-05-16T09:58:03;13.10;35.00
9271;DHT22;4673;53.458;9.940;2023-05-16T10:00:31;13.20;35.90
9271;DHT22;4673;53.458;9.940;2023-05-16T10:02:58;13.30;35.40
9271;DHT22;4673;53.458;9.940;2023-05-16T10:05:27;13.30;32.80
9271;DHT22;4673;53.458;9.940;2023-05-16T10:07:57;13.40;32.90
9271;DHT22;4673;53.458;9.940;2023-05-16T10:10:23;13.50;31.60
9271;DHT22;4673;53.458;9.940;2023-05-16T10:12:50;13.40;33.20
9271;DHT22;4673;53.458;9.940;2023-05-16T10:15:16;13.70;34.30
9271;DHT22;4673;53.458;9.940;2023-05-16T10:17:44;14.00;33.80
9271;DHT22;4673;53.458;9.940;2023-05-16T10:20:14;13.70;33.20
9271;DHT22;4673;53.458;9.940;2023-05-16T10:22:43;13.60;33.40
9271;DHT22;4673;53.458;9.940;2023-05-16T10:25:28;13.70;32.60
9271;DHT22;4673;53.458;9.940;2023-05-16T10:27:55;13.00;30.20
9271;DHT22;4673;53.458;9.940;2023-05-16T10:30:21;12.80;32.50
9271;DHT22;4673;53.458;9.940;2023-05-16T10:32:47;12.90;34.00
9271;DHT22;4673;53.458;9.940;2023-05-16T10:35:14;13.10;33.80
9271;DHT22;4673;53.458;9.940;2023-05-16T10:37:40;13.30;34.50
9271;DHT22;4673;53.458;9.940;2023-05-16T10:40:07;13.90;33.90
9271;DHT22;4673;53.458;9.940;2023-05-16T10:42:34;14.20;32.40
9271;DHT22;4673;53.458;9.940;2023-05-16T10:47:50;14.00;24.50
9271;DHT22;4673;53.458;9.940;2023-05-16T10:53:21;14.10;25.70
9271;DHT22;4673;53.458;9.940;2023-05-16T11:01:23;14.00;27.70
9271;DHT22;4673;53.458;9.940;2023-05-16T11:06:44;13.30;30.80
9271;DHT22;4673;53.458;9.940;2023-05-16T11:14:39;11.80;45.60
9271;DHT22;4673;53.458;9.940;2023-05-16T11:17:12;12.10;47.20
9271;DHT22;4673;53.458;9.940;2023-05-16T11:24:38;12.20;46.20
9271;DHT22;4673;53.458;9.940;2023-05-16T11:27:05;12.10;52.10
9271;DHT22;4673;53.458;9.940;2023-05-16T11:29:32;12.00;57.00
9271;DHT22;4673;53.458;9.940;2023-05-16T11:32:03;11.90;58.40
9271;DHT22;4673;53.458;9.940;2023-05-16T11:34:30;12.00;58.50
9271;DHT22;4673;53.458;9.940;2023-05-16T11:36:57;12.20;58.50
9271;DHT22;4673;53.458;9.940;2023-05-16T11:39:24;12.40;56.30
9271;DHT22;4673;53.458;9.940;2023-05-16T11:41:50;12.20;55.60
9271;DHT22;4673;53.458;9.940;2023-05-16T11:44:17;12.20;51.70
9271;DHT22;4673;53.458;9.940;2023-05-16T11:46:43;12.40;52.70
9271;DHT22;4673;53.458;9.940;2023-05-16T11:49:09;12.50;50.00
9271;DHT22;4673;53.458;9.940;2023-05-16T11:51:38;12.60;45.70
9271;DHT22;4673;53.458;9.940;2023-05-16T11:54:05;12.20;41.90
9271;DHT22;4673;53.458;9.940;2023-05-16T11:56:33;12.20;45.90
9271;DHT22;4673;53.458;9.940;2023-05-16T11:59:00;12.30;41.80
9271;DHT22;4673;53.458;9.940;2023-05-16T12:01:34;12.80;43.70
9271;DHT22;4673;53.458;9.940;2023-05-16T12:04:00;13.40;40.70
9271;DHT22;4673;53.458;9.940;2023-05-16T12:06:26;13.80;36.40
9271;DHT22;4673;53.458;9.940;2023-05-16T12:08:53;13.90;31.90
9271;DHT22;4673;53.458;9.940;2023-05-16T12:11:20;13.80;29.40
9271;DHT22;4673;53.458;9.940;2023-05-16T12:13:47;13.60;31.20
9271;DHT22;4673;53.458;9.940;2023-05-16T12:16:13;13.20;32.90
9271;DHT22;4673;53.458;9.940;2023-05-16T12:18:39;13.00;36.60
9271;DHT22;4673;53.458;9.940;2023-05-16T12:21:05;12.70;38.20
9271;DHT22;4673;53.458;9.940;2023-05-16T12:23:34;12.70;41.30
9271;DHT22;4673;53.458;9.940;2023-05-16T12:26:02;13.00;41.60
9271;DHT22;4673;53.458;9.940;2023-05-16T12:28:32;13.30;40.10
9271;DHT22;4673;53.458;9.940;2023-05-16T12:31:02;13.40;38.50
9271;DHT22;4673;53.458;9.940;2023-05-16T12:33:28;13.30;35.60
9271;DHT22;4673;53.458;9.940;2023-05-16T12:35:54;13.20;34.80
9271;DHT22;4673;53.458;9.940;2023-05-16T12:38:20;13.10;33.40
9271;DHT22;4673;53.458;9.940;2023-05-16T12:40:46;13.00;33.00
9271;DHT22;4673;53.458;9.940;2023-05-16T12:43:14;13.00;34.20
9271;DHT22;4673;53.458;9.940;2023-05-16T12:45:40;13.00;34.30
9271;DHT22;4673;53.458;9.940;2023-05-16T12:48:15;13.20;33.00
9271;DHT22;4673;53.458;9.940;2023-05-16T12:50:41;13.30;32.60
9271;DHT22;4673;53.458;9.940;2023-05-16T12:53:11;13.30;31.10
9271;DHT22;4673;53.458;9.940;2023-05-16T12:55:37;13.30;32.70
9271;DHT22;4673;53.458;9.940;2023-05-16T12:58:03;13.70;34.00
9271;DHT22;4673;53.458;9.940;2023-05-16T13:00:32;13.70;33.40
9271;DHT22;4673;53.458;9.940;2023-05-16T13:02:57;13.70;35.10
9271;DHT22;4673;53.458;9.940;2023-05-16T13:05:23;13.40;34.40
9271;DHT22;4673;53.458;9.940;2023-05-16T13:07:49;13.20;35.50
9271;DHT22;4673;53.458;9.940;2023-05-16T13:10:18;12.80;36.30
9271;DHT22;4673;53.458;9.940;2023-05-16T13:12:43;12.50;37.10
9271;DHT22;4673;53.458;9.940;2023-05-16T13:15:10;12.50;38.00
9271;DHT22;4673;53.458;9.940;2023-05-16T13:17:41;12.40;40.30
9271;DHT22;4673;53.458;9.940;2023-05-16T13:20:09;12.70;41.10
9271;DHT22;4673;53.458;9.940;2023-05-16T13:22:38;12.60;40.10
9271;DHT22;4673;53.458;9.940;2023-05-16T13:25:04;12.60;42.10
9271;DHT22;4673;53.458;9.940;2023-05-16T13:27:31;12.60;41.90
9271;DHT22;4673;53.458;9.940;2023-05-16T13:29:57;12.40;42.90
9271;DHT22;4673;53.458;9.940;2023-05-16T13:32:23;12.70;44.20
9271;DHT22;4673;53.458;9.940;2023-05-16T13:34:49;12.50;42.40
9271;DHT22;4673;53.458;9.940;2023-05-16T13:37:16;12.40;39.40
9271;DHT22;4673;53.458;9.940;2023-05-16T13:39:41;12.50;40.00
9271;DHT22;4673;53.458;9.940;2023-05-16T13:42:07;12.70;39.70
9271;DHT22;4673;53.458;9.940;2023-05-16T13:44:33;12.40;41.00
9271;DHT22;4673;53.458;9.940;2023-05-16T13:46:59;12.10;42.40
9271;DHT22;4673;53.458;9.940;2023-05-16T13:49:24;12.10;39.80
9271;DHT22;4673;53.458;9.940;2023-05-16T13:51:50;11.90;39.80
9271;DHT22;4673;53.458;9.940;2023-05-16T13:54:17;11.80;39.80
9271;DHT22;4673;53.458;9.940;2023-05-16T13:56:43;11.40;39.00
9271;DHT22;4673;53.458;9.940;2023-05-16T13:59:09;11.20;41.90
9271;DHT22;4673;53.458;9.940;2023-05-16T14:01:35;11.10;43.40
9271;DHT22;4673;53.458;9.940;2023-05-16T14:04:01;11.30;43.50
9271;DHT22;4673;53.458;9.940;2023-05-16T14:06:27;11.20;45.10
9271;DHT22;4673;53.458;9.940;2023-05-16T14:08:53;11.60;46.00
9271;DHT22;4673;53.458;9.940;2023-05-16T14:11:18;11.90;44.50
9271;DHT22;4673;53.458;9.940;2023-05-16T14:13:47;11.80;44.50
9271;DHT22;4673;53.458;9.940;2023-05-16T14:16:14;11.70;45.50
9271;DHT22;4673;53.458;9.940;2023-05-16T14:18:39;11.90;45.40
9271;DHT22;4673;53.458;9.940;2023-05-16T14:21:05;12.10;44.30
9271;DHT22;4673;53.458;9.940;2023-05-16T14:23:31;12.30;42.80
9271;DHT22;4673;53.458;9.940;2023-05-16T14:25:56;12.60;41.20
9271;DHT22;4673;53.458;9.940;2023-05-16T14:28:22;12.60;40.40
9271;DHT22;4673;53.458;9.940;2023-05-16T14:30:47;12.50;41.60
9271;DHT22;4673;53.458;9.940;2023-05-16T14:33:13;12.80;40.40
9271;DHT22;4673;53.458;9.940;2023-05-16T14:35:39;12.50;36.10
9271;DHT22;4673;53.458;9.940;2023-05-16T14:38:05;12.50;39.60
9271;DHT22;4673;53.458;9.940;2023-05-16T14:40:32;12.60;39.20
9271;DHT22;4673;53.458;9.940;2023-05-16T14:42:58;12.50;39.20
9271;DHT22;4673;53.458;9.940;2023-05-16T14:45:24;12.50;40.40
9271;DHT22;4673;53.458;9.940;2023-05-16T14:47:50;12.40;41.30
9271;DHT22;4673;53.458;9.940;2023-05-16T14:50:17;12.30;42.90
9271;DHT22;4673;53.458;9.940;2023-05-16T14:52:42;12.10;44.10
9271;DHT22;4673;53.458;9.940;2023-05-16T14:55:09;11.80;45.10
9271;DHT22;4673;53.458;9.940;2023-05-16T14:57:35;11.60;46.30
9271;DHT22;4673;53.458;9.940;2023-05-16T15:00:01;11.80;46.90
9271;DHT22;4673;53.458;9.940;2023-05-16T15:02:27;12.20;44.90
9271;DHT22;4673;53.458;9.940;2023-05-16T15:04:52;12.40;44.30
9271;DHT22;4673;53.458;9.940;2023-05-16T15:07:19;12.60;41.00
9271;DHT22;4673;53.458;9.940;2023-05-16T15:09:45;12.60;42.00
9271;DHT22;4673;53.458;9.940;2023-05-16T15:12:10;12.80;42.10
9271;DHT22;4673;53.458;9.940;2023-05-16T15:14:36;13.00;40.40
9271;DHT22;4673;53.458;9.940;2023-05-16T15:17:02;13.00;38.40
9271;DHT22;4673;53.458;9.940;2023-05-16T15:19:28;12.90;39.50
9271;DHT22;4673;53.458;9.940;2023-05-16T15:21:53;12.60;39.50
9271;DHT22;4673;53.458;9.940;2023-05-16T15:24:19;12.50;40.50
9271;DHT22;4673;53.458;9.940;2023-05-16T15:26:45;12.50;41.40
9271;DHT22;4673;53.458;9.940;2023-05-16T15:29:10;12.60;41.40
9271;DHT22;4673;53.458;9.940;2023-05-16T15:31:36;12.70;41.60
9271;DHT22;4673;53.458;9.940;2023-05-16T15:34:02;12.90;41.10
9271;DHT22;4673;53.458;9.940;2023-05-16T15:36:27;13.00;41.00
9271;DHT22;4673;53.458;9.940;2023-05-16T15:38:53;12.90;41.50
9271;DHT22;4673;53.458;9.940;2023-05-16T15:41:19;12.70;41.40
9271;DHT22;4673;53.458;9.940;2023-05-16T15:43:45;12.70;42.50
9271;DHT22;4673;53.458;9.940;2023-05-16T15:46:11;12.60;42.60
9271;DHT22;4673;53.458;9.940;2023-05-16T15:48:37;12.40;46.40
9271;DHT22;4673;53.458;9.940;2023-05-16T15:51:07;12.30;46.50
9271;DHT22;4673;53.458;9.940;2023-05-16T15:53:33;12.40;47.20
9271;DHT22;4673;53.458;9.940;2023-05-16T15:55:59;12.30;48.30
9271;DHT22;4673;53.458;9.940;2023-05-16T15:58:25;12.40;47.70
9271;DHT22;4673;53.458;9.940;2023-05-16T16:00:50;12.50;47.80
9271;DHT22;4673;53.458;9.940;2023-05-16T16:03:16;12.80;46.20
9271;DHT22;4673;53.458;9.940;2023-05-16T16:05:42;13.00;40.50
9271;DHT22;4673;53.458;9.940;2023-05-16T16:08:07;13.00;35.70
9271;DHT22;4673;53.458;9.940;2023-05-16T16:10:33;12.90;34.90
9271;DHT22;4673;53.458;9.940;2023-05-16T16:13:03;12.70;37.70
9271;DHT22;4673;53.458;9.940;2023-05-16T16:15:30;12.60;39.80
9271;DHT22;4673;53.458;9.940;2023-05-16T16:17:59;12.40;39.90
9271;DHT22;4673;53.458;9.940;2023-05-16T16:20:25;12.30;41.40
9271;DHT22;4673;53.458;9.940;2023-05-16T16:22:51;12.40;42.00
9271;DHT22;4673;53.458;9.940;2023-05-16T16:25:17;12.30;42.70
9271;DHT22;4673;53.458;9.940;2023-05-16T16:27:43;12.40;43.00
9271;DHT22;4673;53.458;9.940;2023-05-16T16:30:09;12.60;41.60